Time;durP1;ratioP1;P1;durP2;ratioP2;P2;SDS_P1;SDS_P2;PMS_P1;PMS_P2;Temp;Humidity;BMP_temperature;BMP_pressure;BME280_temperature;BME280_humidity;BME280_pressure;Samples;Min_cycle;Max_cycle;Signal;HPM_P1;HPM_P2
2022/01/03 00:01:56;;;;;;;3.07;2.30;;;;;;;;;;5080347;28;20201;-80
2022/01/03 00:04:23;;;;;;;7.67;3.03;;;;;;;;;;5076950;28;20237;-81
2022/01/03 00:06:51;;;;;;;3.80;2.00;;;;;;;;;;5079759;28;20205;-80
2022/01/03 00:09:18;;;;;;;2.70;1.87;;;;;;;;;;5080624;28;20288;-80
2022/01/03 00:11:46;;;;;;;3.13;1.83;;;;;;;;;;5081663;28;20201;-80
2022/01/03 00:14:13;;;;;;;1.50;1.40;;;;;;;;;;5080512;28;20241;-80
2022/01/03 00:16:41;;;;;;;4.43;2.47;;;;;;;;;;5081214;28;20692;-80
2022/01/03 00:19:08;;;;;;;3.73;2.40;;;;;;;;;;5081087;28;20586;-80
2022/01/03 00:21:39;;;;;;;4.90;2.37;;;;;;;;;;5081403;28;20684;-80
2022/01/03 00:24:08;;;;;;;3.07;1.50;;;;;;;;;;5080499;28;20240;-80
2022/01/03 00:26:35;;;;;;;3.80;1.47;;;;;;;;;;5081846;28;20202;-80
2022/01/03 00:29:06;;;;;;;5.10;2.10;;;;;;;;;;5082040;28;20244;-80
2022/01/03 00:31:34;;;;;;;3.13;1.40;;;;;;;;;;5068154;28;20213;-80
2022/01/03 00:34:03;;;;;;;10.00;2.00;;;;;;;;;;5078866;28;20253;-80
2022/01/03 00:36:31;;;;;;;4.00;1.70;;;;;;;;;;5080633;28;20205;-80
2022/01/03 00:38:58;;;;;;;2.90;1.23;;;;;;;;;;5078591;28;20236;-80
2022/01/03 00:41:26;;;;;;;1.50;1.40;;;;;;;;;;5081829;28;20208;-80
2022/01/03 00:43:53;;;;;;;1.83;1.50;;;;;;;;;;5080542;28;20240;-80
2022/01/03 00:46:21;;;;;;;3.43;1.67;;;;;;;;;;5081239;28;20208;-80
2022/01/03 00:48:48;;;;;;;3.17;1.50;;;;;;;;;;5080694;28;20244;-80
2022/01/03 00:51:19;;;;;;;2.20;1.73;;;;;;;;;;5080744;28;20553;-80
2022/01/03 00:53:47;;;;;;;5.50;1.90;;;;;;;;;;5078066;28;20236;-80
2022/01/03 00:56:15;;;;;;;3.57;1.90;;;;;;;;;;5080156;28;20248;-80
2022/01/03 00:58:47;;;;;;;3.20;1.57;;;;;;;;;;5080345;28;20260;-80
2022/01/03 01:01:15;;;;;;;1.77;1.57;;;;;;;;;;5096007;28;20200;-80
2022/01/03 01:03:43;;;;;;;3.77;1.70;;;;;;;;;;5076875;28;20259;-80
2022/01/03 01:06:10;;;;;;;1.93;1.70;;;;;;;;;;5076832;28;20546;-80
2022/01/03 01:08:39;;;;;;;3.73;1.60;;;;;;;;;;5078876;28;20316;-80
2022/01/03 01:11:07;;;;;;;3.13;1.50;;;;;;;;;;5079541;28;20248;-80
2022/01/03 01:13:36;;;;;;;3.73;2.47;;;;;;;;;;5078186;28;20239;-80
2022/01/03 01:16:05;;;;;;;3.40;1.50;;;;;;;;;;5081053;28;20217;-80
2022/01/03 01:18:35;;;;;;;2.53;1.40;;;;;;;;;;5079697;28;20711;-80
2022/01/03 01:21:03;;;;;;;1.20;1.20;;;;;;;;;;5080486;28;20213;-80
2022/01/03 01:23:30;;;;;;;2.73;1.30;;;;;;;;;;5080431;28;20233;-79
2022/01/03 01:28:43;;;;;;;1.47;1.10;;;;;;;;;;5078405;28;20274;-79
2022/01/03 01:31:12;;;;;;;1.47;1.37;;;;;;;;;;5079588;28;20205;-79
2022/01/03 01:33:39;;;;;;;6.43;1.50;;;;;;;;;;5079187;28;20244;-80
2022/01/03 01:36:07;;;;;;;2.20;1.40;;;;;;;;;;5079972;28;20208;-80
2022/01/03 01:38:36;;;;;;;3.33;1.27;;;;;;;;;;5079472;28;20237;-80
2022/01/03 01:41:05;;;;;;;5.00;1.50;;;;;;;;;;5077724;28;20209;-80
2022/01/03 01:43:34;;;;;;;2.57;1.60;;;;;;;;;;5058766;28;20237;-80
2022/01/03 01:46:04;;;;;;;3.27;1.40;;;;;;;;;;5065522;28;20202;-80
2022/01/03 01:48:34;;;;;;;1.63;1.40;;;;;;;;;;5078960;28;20264;-80
2022/01/03 01:51:01;;;;;;;1.93;1.60;;;;;;;;;;5078188;28;20258;-80
2022/01/03 01:53:29;;;;;;;1.53;1.43;;;;;;;;;;5072625;28;20233;-80
2022/01/03 01:55:58;;;;;;;4.97;1.57;;;;;;;;;;5072281;28;20205;-80
2022/01/03 01:58:31;;;;;;;3.23;1.50;;;;;;;;;;5071828;28;20639;-80
2022/01/03 02:00:59;;;;;;;1.77;1.60;;;;;;;;;;5072614;28;20206;-80
2022/01/03 02:03:27;;;;;;;1.40;1.30;;;;;;;;;;5052538;28;20225;-80
2022/01/03 02:05:58;;;;;;;3.60;1.70;;;;;;;;;;5062997;28;20201;-80
2022/01/03 02:08:28;;;;;;;4.00;1.70;;;;;;;;;;5073020;28;20705;-80
2022/01/03 02:10:59;;;;;;;3.90;1.43;;;;;;;;;;5054314;28;20212;-80
2022/01/03 02:13:27;;;;;;;3.50;1.60;;;;;;;;;;5061295;28;20291;-80
2022/01/03 02:16:03;;;;;;;2.00;1.47;;;;;;;;;;5074227;28;20209;-80
2022/01/03 02:18:30;;;;;;;3.77;1.77;;;;;;;;;;5074368;28;20261;-80
2022/01/03 02:20:58;;;;;;;1.50;1.40;;;;;;;;;;5073227;28;20209;-80
2022/01/03 02:23:26;;;;;;;1.73;1.50;;;;;;;;;;5074492;28;20225;-80
2022/01/03 02:25:53;;;;;;;4.87;1.60;;;;;;;;;;5074999;28;20406;-80
2022/01/03 02:28:22;;;;;;;5.20;1.60;;;;;;;;;;5074447;28;20233;-80
2022/01/03 02:30:50;;;;;;;3.70;1.60;;;;;;;;;;5075290;28;20683;-79
2022/01/03 02:33:17;;;;;;;2.60;1.40;;;;;;;;;;5076977;28;20229;-80
2022/01/03 02:35:45;;;;;;;3.63;1.43;;;;;;;;;;5076437;28;20201;-80
2022/01/03 02:38:13;;;;;;;1.60;1.50;;;;;;;;;;5076074;28;20236;-80
2022/01/03 02:40:41;;;;;;;3.67;1.70;;;;;;;;;;5077092;28;20205;-79
2022/01/03 02:43:08;;;;;;;1.60;1.37;;;;;;;;;;5075533;28;20233;-79
2022/01/03 02:45:35;;;;;;;2.43;1.50;;;;;;;;;;5073502;28;20621;-79
2022/01/03 02:48:04;;;;;;;7.70;1.57;;;;;;;;;;5073718;28;20263;-79
2022/01/03 02:50:32;;;;;;;4.07;1.70;;;;;;;;;;5076479;28;20225;-79
2022/01/03 02:53:00;;;;;;;4.97;1.57;;;;;;;;;;5075692;28;20251;-79
2022/01/03 02:55:28;;;;;;;3.80;1.60;;;;;;;;;;5075244;28;20209;-79
2022/01/03 02:57:56;;;;;;;7.67;1.90;;;;;;;;;;5073088;28;20283;-79
2022/01/03 03:00:24;;;;;;;3.07;1.60;;;;;;;;;;5074625;28;20236;-79
2022/01/03 03:02:51;;;;;;;2.63;1.63;;;;;;;;;;5077255;28;20212;-79
2022/01/03 03:05:19;;;;;;;1.40;1.30;;;;;;;;;;5080222;28;20231;-79
2022/01/03 03:07:46;;;;;;;2.33;1.60;;;;;;;;;;5080731;28;20219;-79
2022/01/03 03:10:14;;;;;;;4.00;1.67;;;;;;;;;;5081787;28;20224;-79
2022/01/03 03:12:43;;;;;;;2.30;1.60;;;;;;;;;;5081648;28;20209;-80
2022/01/03 03:15:11;;;;;;;4.03;1.67;;;;;;;;;;5080992;28;20197;-80
2022/01/03 03:17:39;;;;;;;2.40;1.67;;;;;;;;;;5079853;28;20197;-80
2022/01/03 03:20:09;;;;;;;3.77;1.77;;;;;;;;;;5080464;28;20236;-80
2022/01/03 03:22:37;;;;;;;4.63;1.83;;;;;;;;;;5080561;28;20198;-80
2022/01/03 03:25:06;;;;;;;4.63;2.03;;;;;;;;;;5080884;28;20205;-79
2022/01/03 03:27:33;;;;;;;4.43;1.60;;;;;;;;;;5080518;28;20206;-79
2022/01/03 03:30:01;;;;;;;3.63;1.80;;;;;;;;;;5079813;28;20578;-79
2022/01/03 03:32:28;;;;;;;4.93;1.87;;;;;;;;;;5079489;28;20209;-79
2022/01/03 03:34:56;;;;;;;5.37;1.70;;;;;;;;;;5078905;28;20240;-79
2022/01/03 03:37:23;;;;;;;4.53;1.63;;;;;;;;;;5071498;28;20202;-79
2022/01/03 03:39:50;;;;;;;4.40;1.80;;;;;;;;;;5080217;28;20229;-79
2022/01/03 03:42:17;;;;;;;5.30;1.70;;;;;;;;;;5077830;28;20197;-79
2022/01/03 03:44:45;;;;;;;4.67;2.07;;;;;;;;;;5077367;28;20233;-79
2022/01/03 03:47:13;;;;;;;4.27;1.77;;;;;;;;;;5080361;28;20630;-79
2022/01/03 03:49:41;;;;;;;7.10;2.33;;;;;;;;;;5079141;28;20237;-79
2022/01/03 03:52:08;;;;;;;4.57;1.70;;;;;;;;;;5080494;28;20197;-79
2022/01/03 03:54:36;;;;;;;8.53;1.90;;;;;;;;;;5081397;28;20236;-79
2022/01/03 03:57:04;;;;;;;6.50;1.83;;;;;;;;;;5071484;28;20213;-79
2022/01/03 03:59:31;;;;;;;2.80;1.67;;;;;;;;;;5101951;22;20224;-85
2022/01/03 04:01:58;;;;;;;3.67;1.93;;;;;;;;;;5097354;28;20204;-83
2022/01/03 04:04:27;;;;;;;5.27;2.10;;;;;;;;;;5103988;28;20228;-84
2022/01/03 04:06:54;;;;;;;3.13;1.80;;;;;;;;;;5099494;28;20204;-84
2022/01/03 04:09:21;;;;;;;5.13;2.40;;;;;;;;;;5112164;28;20236;-85
2022/01/03 04:11:48;;;;;;;4.30;1.93;;;;;;;;;;5118349;28;20193;-84
2022/01/03 04:14:15;;;;;;;3.17;1.80;;;;;;;;;;5111544;28;20243;-85
2022/01/03 04:16:42;;;;;;;8.43;2.00;;;;;;;;;;5078105;28;20203;-84
2022/01/03 04:19:10;;;;;;;3.40;1.63;;;;;;;;;;5070150;28;20230;-85
2022/01/03 04:21:39;;;;;;;9.30;2.73;;;;;;;;;;5076299;28;20210;-85
2022/01/03 04:24:07;;;;;;;6.67;2.20;;;;;;;;;;5076833;28;20784;-85
2022/01/03 04:26:34;;;;;;;3.43;1.60;;;;;;;;;;5091100;28;20260;-85
2022/01/03 04:29:01;;;;;;;8.70;2.20;;;;;;;;;;5079294;28;20233;-83
2022/01/03 04:31:28;;;;;;;5.97;2.20;;;;;;;;;;5081891;28;20209;-84
2022/01/03 04:33:55;;;;;;;6.10;2.00;;;;;;;;;;5082250;28;20229;-84
2022/01/03 04:36:23;;;;;;;7.30;1.87;;;;;;;;;;5082390;28;20250;-84
2022/01/03 04:38:51;;;;;;;3.67;2.20;;;;;;;;;;5081664;28;20612;-83
2022/01/03 04:41:18;;;;;;;9.67;2.03;;;;;;;;;;5082219;28;20229;-84
2022/01/03 04:43:45;;;;;;;3.67;1.80;;;;;;;;;;5081928;28;20233;-84
2022/01/03 04:46:12;;;;;;;4.80;1.80;;;;;;;;;;5081898;28;20198;-83
2022/01/03 04:48:40;;;;;;;6.57;2.60;;;;;;;;;;5081270;28;20248;-84
2022/01/03 04:51:07;;;;;;;2.93;1.80;;;;;;;;;;5081455;28;20229;-83
2022/01/03 04:53:37;;;;;;;4.23;1.97;;;;;;;;;;5080655;28;20248;-84
2022/01/03 04:56:05;;;;;;;4.83;2.10;;;;;;;;;;5081168;28;20201;-83
2022/01/03 04:58:32;;;;;;;3.67;1.80;;;;;;;;;;5079722;28;20237;-83
2022/01/03 05:00:59;;;;;;;8.80;2.47;;;;;;;;;;5080660;28;20201;-84
2022/01/03 05:03:27;;;;;;;3.07;1.67;;;;;;;;;;5079767;28;20240;-83
2022/01/03 05:05:54;;;;;;;3.83;2.03;;;;;;;;;;5080200;28;20232;-84
2022/01/03 05:08:21;;;;;;;3.30;1.97;;;;;;;;;;5079732;28;20252;-84
2022/01/03 05:10:48;;;;;;;10.30;2.30;;;;;;;;;;5079401;28;20643;-83
2022/01/03 05:13:16;;;;;;;5.33;2.17;;;;;;;;;;5078200;28;20711;-83
2022/01/03 05:15:43;;;;;;;7.30;2.00;;;;;;;;;;5079076;28;20205;-84
2022/01/03 05:18:10;;;;;;;4.23;1.90;;;;;;;;;;5078119;28;20229;-83
2022/01/03 05:20:37;;;;;;;6.30;2.10;;;;;;;;;;5078019;28;20201;-84
2022/01/03 05:23:04;;;;;;;9.93;2.30;;;;;;;;;;5078357;28;20263;-85
2022/01/03 05:25:31;;;;;;;8.83;2.77;;;;;;;;;;5078896;28;20213;-83
2022/01/03 05:27:58;;;;;;;5.17;2.53;;;;;;;;;;5077464;28;20585;-84
2022/01/03 05:30:27;;;;;;;7.17;2.23;;;;;;;;;;5077844;28;20229;-84
2022/01/03 05:32:54;;;;;;;6.80;2.20;;;;;;;;;;5077611;28;20695;-85
2022/01/03 05:35:21;;;;;;;3.97;2.63;;;;;;;;;;5077635;28;20216;-84
2022/01/03 05:37:48;;;;;;;6.43;2.20;;;;;;;;;;5077867;28;20209;-84
2022/01/03 05:40:15;;;;;;;7.97;2.83;;;;;;;;;;5078769;28;20217;-84
2022/01/03 05:42:44;;;;;;;4.03;2.23;;;;;;;;;;5078014;28;20205;-83
2022/01/03 05:45:13;;;;;;;8.70;2.40;;;;;;;;;;5078935;28;20233;-84
2022/01/03 05:47:46;;;;;;;5.60;2.03;;;;;;;;;;5079992;28;20613;-84
2022/01/03 05:50:14;;;;;;;6.00;2.13;;;;;;;;;;5078747;28;20269;-84
2022/01/03 05:52:41;;;;;;;9.13;2.10;;;;;;;;;;5079866;28;20209;-84
2022/01/03 05:55:09;;;;;;;6.57;2.47;;;;;;;;;;5080984;28;20202;-85
2022/01/03 05:57:36;;;;;;;3.10;2.00;;;;;;;;;;5081318;28;20205;-84
2022/01/03 06:00:04;;;;;;;4.47;2.37;;;;;;;;;;5080438;28;20239;-85
2022/01/03 06:02:39;;;;;;;4.97;2.30;;;;;;;;;;5080356;28;20212;-84
2022/01/03 06:05:10;;;;;;;2.47;1.80;;;;;;;;;;5081264;28;20229;-83
2022/01/03 06:07:37;;;;;;;7.03;2.60;;;;;;;;;;5080436;28;20206;-84
2022/01/03 06:10:09;;;;;;;8.93;2.40;;;;;;;;;;5080631;28;20236;-83
2022/01/03 06:12:36;;;;;;;5.73;2.00;;;;;;;;;;5081947;28;20201;-83
2022/01/03 06:15:03;;;;;;;5.77;2.30;;;;;;;;;;5081617;28;20249;-85
2022/01/03 06:17:30;;;;;;;7.87;2.70;;;;;;;;;;5081194;28;20209;-83
2022/01/03 06:19:57;;;;;;;4.10;1.80;;;;;;;;;;5079437;28;20241;-87
2022/01/03 06:22:26;;;;;;;6.30;2.10;;;;;;;;;;5078318;28;20208;-84
2022/01/03 06:24:53;;;;;;;3.03;1.80;;;;;;;;;;5079427;28;20240;-84
2022/01/03 06:27:20;;;;;;;4.63;1.90;;;;;;;;;;5080037;28;20205;-86
2022/01/03 06:29:47;;;;;;;5.60;1.67;;;;;;;;;;5077458;28;20236;-85
2022/01/03 06:32:14;;;;;;;4.13;2.10;;;;;;;;;;5076796;28;20560;-84
2022/01/03 06:34:41;;;;;;;5.23;2.00;;;;;;;;;;5075096;28;20224;-85
2022/01/03 06:37:08;;;;;;;1.87;1.70;;;;;;;;;;5073262;28;20197;-87
2022/01/03 06:39:37;;;;;;;3.30;2.03;;;;;;;;;;5075760;28;20237;-84
2022/01/03 06:42:05;;;;;;;3.17;1.63;;;;;;;;;;5074390;28;20681;-86
2022/01/03 06:44:32;;;;;;;6.33;2.40;;;;;;;;;;5072999;28;20595;-85
2022/01/03 06:47:00;;;;;;;9.67;2.23;;;;;;;;;;5073182;28;20659;-86
2022/01/03 06:49:28;;;;;;;7.30;2.93;;;;;;;;;;5072640;28;20236;-85
2022/01/03 06:51:57;;;;;;;5.20;2.40;;;;;;;;;;5073241;28;20201;-85
2022/01/03 06:54:25;;;;;;;6.70;2.37;;;;;;;;;;5072478;28;20241;-85
2022/01/03 06:56:54;;;;;;;6.47;2.20;;;;;;;;;;5073036;28;20231;-86
2022/01/03 06:59:21;;;;;;;9.50;2.60;;;;;;;;;;5072818;28;20247;-86
2022/01/03 07:01:48;;;;;;;7.40;3.20;;;;;;;;;;5077963;28;20204;-84
2022/01/03 07:04:15;;;;;;;3.07;2.37;;;;;;;;;;5078969;28;20615;-84
2022/01/03 07:06:42;;;;;;;9.00;2.33;;;;;;;;;;5075741;28;20213;-84
2022/01/03 07:09:09;;;;;;;7.07;2.50;;;;;;;;;;5074856;28;20282;-84
2022/01/03 07:11:38;;;;;;;5.70;2.27;;;;;;;;;;5076755;28;20265;-83
2022/01/03 07:18:56;;;;;;;6.97;2.20;;;;;;;;;;5075050;28;20244;-85
2022/01/03 07:19:39;;;;;;;3.13;1.80;;;;;;;;;;5053398;28;20788;-85
2022/01/03 07:22:08;;;;;;;9.40;2.37;;;;;;;;;;5053952;28;20650;-84
2022/01/03 07:24:36;;;;;;;4.50;1.90;;;;;;;;;;5055743;28;20236;-85
2022/01/03 07:27:04;;;;;;;4.70;2.30;;;;;;;;;;5053692;28;20213;-85
2022/01/03 07:29:33;;;;;;;6.70;2.30;;;;;;;;;;5052798;28;20237;-86
2022/01/03 07:32:00;;;;;;;8.00;2.40;;;;;;;;;;5052677;28;20222;-86
2022/01/03 07:34:28;;;;;;;15.77;3.67;;;;;;;;;;5051996;28;20253;-86
2022/01/03 07:36:55;;;;;;;2.67;2.20;;;;;;;;;;5052750;28;20198;-85
2022/01/03 07:39:22;;;;;;;4.93;2.10;;;;;;;;;;5052142;28;20241;-86
2022/01/03 07:41:49;;;;;;;10.60;3.43;;;;;;;;;;5052506;28;20201;-86
2022/01/03 07:44:16;;;;;;;10.13;2.67;;;;;;;;;;5051831;28;20237;-86
2022/01/03 07:46:44;;;;;;;8.70;2.97;;;;;;;;;;5052871;28;20206;-86
2022/01/03 07:49:11;;;;;;;3.47;1.90;;;;;;;;;;5054759;28;20237;-85
2022/01/03 07:51:38;;;;;;;4.87;2.60;;;;;;;;;;5056129;28;20229;-86
2022/01/03 07:54:06;;;;;;;11.87;2.83;;;;;;;;;;5054958;28;20230;-86
2022/01/03 07:56:33;;;;;;;6.33;2.30;;;;;;;;;;5055225;28;20206;-85
2022/01/03 07:59:00;;;;;;;12.43;2.93;;;;;;;;;;5054409;28;20261;-86
2022/01/03 08:01:27;;;;;;;7.97;2.93;;;;;;;;;;5063731;28;20202;-86
2022/01/03 08:03:56;;;;;;;13.63;3.20;;;;;;;;;;5073806;28;20688;-86
2022/01/03 08:06:23;;;;;;;7.03;2.30;;;;;;;;;;5075519;28;20216;-86
2022/01/03 08:08:50;;;;;;;13.57;2.87;;;;;;;;;;5075172;28;20232;-86
2022/01/03 08:11:17;;;;;;;10.53;2.90;;;;;;;;;;5075539;28;20225;-86
2022/01/03 08:13:44;;;;;;;6.10;2.50;;;;;;;;;;5075233;28;20609;-86
2022/01/03 08:16:11;;;;;;;9.17;2.77;;;;;;;;;;5077051;28;20685;-86
2022/01/03 08:18:38;;;;;;;7.87;2.33;;;;;;;;;;5066483;28;20245;-85
2022/01/03 08:21:08;;;;;;;11.50;2.93;;;;;;;;;;5072758;28;20209;-85
2022/01/03 08:23:35;;;;;;;11.73;2.80;;;;;;;;;;5075890;28;20233;-85
2022/01/03 08:26:02;;;;;;;6.40;3.13;;;;;;;;;;5096086;28;20204;-85
2022/01/03 08:28:29;;;;;;;9.13;3.07;;;;;;;;;;5089703;28;20236;-85
2022/01/03 08:30:58;;;;;;;10.73;3.03;;;;;;;;;;5078452;28;20229;-85
2022/01/03 08:33:25;;;;;;;9.47;2.90;;;;;;;;;;5080431;28;20232;-87
2022/01/03 08:35:52;;;;;;;13.77;3.60;;;;;;;;;;5081544;28;20205;-84
2022/01/03 08:38:21;;;;;;;5.27;2.60;;;;;;;;;;5078015;28;20268;-86
2022/01/03 08:40:48;;;;;;;10.63;3.33;;;;;;;;;;5078004;28;20204;-84
2022/01/03 08:43:15;;;;;;;6.97;2.53;;;;;;;;;;5077662;28;20225;-86
2022/01/03 08:45:42;;;;;;;9.97;3.10;;;;;;;;;;5078658;28;20205;-85
2022/01/03 08:48:10;;;;;;;6.30;2.47;;;;;;;;;;5077464;28;20233;-85
2022/01/03 08:50:37;;;;;;;10.23;2.97;;;;;;;;;;5075904;28;20233;-85
2022/01/03 08:53:05;;;;;;;8.87;3.00;;;;;;;;;;5078267;28;20236;-85
2022/01/03 08:55:34;;;;;;;11.03;3.33;;;;;;;;;;5077162;28;20209;-85
2022/01/03 08:58:02;;;;;;;11.97;2.97;;;;;;;;;;5078024;28;20279;-85
2022/01/03 09:00:29;;;;;;;6.80;2.30;;;;;;;;;;5077174;28;20209;-85
2022/01/03 09:02:56;;;;;;;11.90;2.97;;;;;;;;;;5076766;28;20210;-85
2022/01/03 09:05:23;;;;;;;10.03;3.27;;;;;;;;;;5077633;28;20205;-85
2022/01/03 09:07:50;;;;;;;5.87;2.47;;;;;;;;;;5078452;28;20212;-84
2022/01/03 09:10:17;;;;;;;5.87;3.10;;;;;;;;;;5078375;28;20221;-84
2022/01/03 09:12:45;;;;;;;10.53;2.70;;;;;;;;;;5078646;28;20206;-86
2022/01/03 09:15:12;;;;;;;12.27;3.57;;;;;;;;;;5080210;28;20201;-85
2022/01/03 09:17:40;;;;;;;12.57;2.93;;;;;;;;;;5080064;28;20205;-85
2022/01/03 09:20:08;;;;;;;8.90;3.00;;;;;;;;;;5084075;28;20225;-84
2022/01/03 09:22:41;;;;;;;9.73;2.97;;;;;;;;;;5079665;28;20205;-85
2022/01/03 09:30:43;;;;;;;11.10;3.53;;;;;;;;;;5075114;28;20212;-86
2022/01/03 09:33:10;;;;;;;10.23;3.47;;;;;;;;;;5074332;28;20240;-86
2022/01/03 09:35:38;;;;;;;9.30;3.83;;;;;;;;;;5074910;28;20410;-86
2022/01/03 09:38:05;;;;;;;5.87;3.50;;;;;;;;;;5076020;28;20652;-87
2022/01/03 09:40:32;;;;;;;10.87;3.07;;;;;;;;;;5063480;28;20654;-86
2022/01/03 09:43:01;;;;;;;5.57;2.63;;;;;;;;;;5054397;28;20594;-86
2022/01/03 09:45:32;;;;;;;4.90;3.00;;;;;;;;;;5054403;28;20221;-86
2022/01/03 09:48:00;;;;;;;7.40;2.60;;;;;;;;;;5054450;28;20286;-85
2022/01/03 09:50:27;;;;;;;8.93;3.07;;;;;;;;;;5054095;28;20218;-85
2022/01/03 09:52:56;;;;;;;10.93;3.93;;;;;;;;;;5048572;28;20209;-85
2022/01/03 09:55:23;;;;;;;11.90;3.00;;;;;;;;;;5068640;28;20606;-85
2022/01/03 09:57:51;;;;;;;12.27;3.17;;;;;;;;;;5064854;28;20295;-85
2022/01/03 10:00:22;;;;;;;9.43;2.53;;;;;;;;;;5073267;28;20241;-84
2022/01/03 10:02:50;;;;;;;16.20;3.10;;;;;;;;;;5056272;28;20680;-85
2022/01/03 10:05:18;;;;;;;10.73;2.83;;;;;;;;;;5054220;28;20190;-84
2022/01/03 10:07:46;;;;;;;15.67;3.40;;;;;;;;;;5054821;28;20210;-84
2022/01/03 10:10:13;;;;;;;6.47;2.40;;;;;;;;;;5054165;28;20237;-85
2022/01/03 10:12:40;;;;;;;11.60;3.03;;;;;;;;;;5055010;28;20222;-85
2022/01/03 10:15:09;;;;;;;7.97;2.90;;;;;;;;;;5054834;28;20197;-85
2022/01/03 10:17:38;;;;;;;9.83;2.90;;;;;;;;;;5054930;28;20210;-85
2022/01/03 10:20:06;;;;;;;10.23;3.97;;;;;;;;;;5054975;28;20221;-85
2022/01/03 10:22:35;;;;;;;16.40;3.57;;;;;;;;;;5059451;28;20205;-85
2022/01/03 10:25:03;;;;;;;7.27;2.40;;;;;;;;;;5077531;28;20288;-84
2022/01/03 10:27:45;;;;;;;15.63;3.43;;;;;;;;;;5075150;28;20208;-85
2022/01/03 10:30:12;;;;;;;12.30;3.27;;;;;;;;;;5059890;28;20233;-85
2022/01/03 10:32:42;;;;;;;12.33;3.57;;;;;;;;;;5055175;28;20210;-85
2022/01/03 10:35:19;;;;;;;9.80;3.03;;;;;;;;;;5056940;28;20202;-85
2022/01/03 10:37:46;;;;;;;11.50;2.93;;;;;;;;;;5056098;28;20213;-85
2022/01/03 10:40:17;;;;;;;9.97;2.93;;;;;;;;;;5056092;28;20229;-87
2022/01/03 10:42:44;;;;;;;12.13;4.77;;;;;;;;;;5054981;28;20202;-85
2022/01/03 10:45:11;;;;;;;12.83;2.47;;;;;;;;;;5055401;28;20202;-85
2022/01/03 10:47:41;;;;;;;9.03;2.77;;;;;;;;;;5069813;28;20205;-84
2022/01/03 10:50:17;;;;;;;8.30;2.93;;;;;;;;;;5056459;28;20712;-85
2022/01/03 10:52:45;;;;;;;8.60;2.60;;;;;;;;;;5055164;28;20217;-85
2022/01/03 10:55:13;;;;;;;13.57;3.00;;;;;;;;;;5058190;28;20216;-84
2022/01/03 10:57:47;;;;;;;10.27;3.03;;;;;;;;;;5057102;28;20235;-85
2022/01/03 11:00:15;;;;;;;6.57;2.20;;;;;;;;;;5059637;28;20238;-87
2022/01/03 11:02:42;;;;;;;12.67;3.33;;;;;;;;;;5055319;28;20227;-86
2022/01/03 11:05:10;;;;;;;6.27;2.47;;;;;;;;;;5057187;28;20206;-84
2022/01/03 11:13:10;;;;;;;12.20;3.20;;;;;;;;;;5073368;28;20236;-85
2022/01/03 11:15:37;;;;;;;6.27;3.03;;;;;;;;;;5074760;28;20209;-86
2022/01/03 11:18:11;;;;;;;7.73;2.63;;;;;;;;;;5073952;28;20233;-84
2022/01/03 11:20:38;;;;;;;9.23;3.27;;;;;;;;;;5074465;28;20216;-85
2022/01/03 11:23:07;;;;;;;4.93;2.13;;;;;;;;;;5076912;28;20236;-85
2022/01/03 11:25:34;;;;;;;9.03;3.00;;;;;;;;;;5077973;28;20209;-85
2022/01/03 11:28:02;;;;;;;8.40;3.43;;;;;;;;;;5062825;28;20693;-85
2022/01/03 11:30:29;;;;;;;11.40;3.87;;;;;;;;;;5057729;28;20217;-85
2022/01/03 11:32:56;;;;;;;11.43;3.73;;;;;;;;;;5057917;28;20246;-84
2022/01/03 11:35:24;;;;;;;11.33;3.73;;;;;;;;;;5060362;28;20228;-84
2022/01/03 11:37:52;;;;;;;3.87;2.13;;;;;;;;;;5057975;28;20395;-85
2022/01/03 11:40:21;;;;;;;8.27;2.60;;;;;;;;;;5058905;28;20241;-85
2022/01/03 11:42:48;;;;;;;13.43;2.63;;;;;;;;;;5057799;28;20199;-87
2022/01/03 11:45:15;;;;;;;8.07;2.60;;;;;;;;;;5056732;28;20202;-86
2022/01/03 11:47:43;;;;;;;5.53;2.23;;;;;;;;;;5056461;28;20211;-87
2022/01/03 11:50:10;;;;;;;9.77;3.30;;;;;;;;;;5059065;28;20226;-86
2022/01/03 11:52:39;;;;;;;7.87;2.47;;;;;;;;;;5055767;28;20263;-86
2022/01/03 11:55:07;;;;;;;8.13;2.00;;;;;;;;;;5055985;28;20686;-86
2022/01/03 11:57:58;;;;;;;12.93;2.90;;;;;;;;;;5056549;28;20209;-86
2022/01/03 12:05:58;;;;;;;7.37;2.20;;;;;;;;;;5057668;28;20803;-87
2022/01/03 12:08:25;;;;;;;8.33;2.70;;;;;;;;;;5075539;28;20237;-87
2022/01/03 12:10:53;;;;;;;8.60;2.47;;;;;;;;;;5075720;28;20232;-86
2022/01/03 12:13:22;;;;;;;7.97;2.53;;;;;;;;;;5074787;28;20237;-86
2022/01/03 12:16:03;;;;;;;10.03;3.23;;;;;;;;;;5075651;28;20241;-87
2022/01/03 12:18:31;;;;;;;11.20;2.70;;;;;;;;;;5075726;28;20261;-86
2022/01/03 12:20:58;;;;;;;11.13;3.10;;;;;;;;;;5074281;28;20201;-87
2022/01/03 12:23:41;;;;;;;8.40;2.20;;;;;;;;;;5075224;28;20225;-87
2022/01/03 12:26:09;;;;;;;4.23;2.20;;;;;;;;;;5075953;28;20208;-87
2022/01/03 12:28:51;;;;;;;6.80;2.80;;;;;;;;;;5075365;28;20261;-87
2022/01/03 12:31:20;;;;;;;5.97;2.33;;;;;;;;;;5074361;28;20666;-87
2022/01/03 12:34:02;;;;;;;9.83;2.73;;;;;;;;;;5074574;28;20251;-86
2022/01/03 12:36:29;;;;;;;8.33;2.67;;;;;;;;;;5075532;28;20212;-86
2022/01/03 12:39:02;;;;;;;9.03;2.60;;;;;;;;;;5074442;28;20229;-86
2022/01/03 12:41:38;;;;;;;12.23;2.90;;;;;;;;;;5075472;28;20204;-85
2022/01/03 12:44:06;;;;;;;12.80;2.90;;;;;;;;;;5075017;28;20286;-87
2022/01/03 12:46:34;;;;;;;4.60;3.03;;;;;;;;;;5075729;28;20201;-87
2022/01/03 12:49:24;;;;;;;9.10;2.10;;;;;;;;;;5068169;28;20714;-87
2022/01/03 12:51:51;;;;;;;10.70;3.10;;;;;;;;;;5077008;28;20217;-85
2022/01/03 12:54:33;;;;;;;9.40;2.87;;;;;;;;;;5097481;28;20229;-85
2022/01/03 12:57:13;;;;;;;5.13;2.27;;;;;;;;;;5097173;28;20235;-84
2022/01/03 12:59:40;;;;;;;8.10;2.90;;;;;;;;;;5098278;28;20587;-86
2022/01/03 13:02:29;;;;;;;13.10;3.80;;;;;;;;;;5079097;28;20619;-87
2022/01/03 13:04:56;;;;;;;8.50;3.03;;;;;;;;;;5075012;28;20295;-86
2022/01/03 13:07:24;;;;;;;9.50;2.83;;;;;;;;;;5074155;28;20197;-87
2022/01/03 13:09:51;;;;;;;5.67;2.60;;;;;;;;;;5054162;28;20265;-87
2022/01/03 13:12:18;;;;;;;9.07;2.90;;;;;;;;;;5061336;28;20287;-87
2022/01/03 13:14:45;;;;;;;12.70;2.67;;;;;;;;;;5074210;28;20233;-87
2022/01/03 13:17:12;;;;;;;7.43;2.60;;;;;;;;;;5073970;28;20201;-86
2022/01/03 13:19:41;;;;;;;7.70;2.50;;;;;;;;;;5074039;28;20735;-87
2022/01/03 13:22:09;;;;;;;11.57;2.97;;;;;;;;;;5074969;28;20201;-87
2022/01/03 13:24:37;;;;;;;4.43;2.60;;;;;;;;;;5071341;28;20257;-86
2022/01/03 13:27:08;;;;;;;5.23;2.60;;;;;;;;;;5063430;28;20211;-87
2022/01/03 13:29:38;;;;;;;11.57;3.40;;;;;;;;;;5073736;28;20252;-86
2022/01/03 13:32:07;;;;;;;6.97;2.70;;;;;;;;;;5074303;28;20221;-86
2022/01/03 13:34:35;;;;;;;8.03;3.07;;;;;;;;;;5073944;28;20271;-86
2022/01/03 13:37:04;;;;;;;11.50;3.43;;;;;;;;;;5074182;28;20201;-87
2022/01/03 13:39:33;;;;;;;8.87;3.40;;;;;;;;;;5074329;28;20241;-87
2022/01/03 13:42:04;;;;;;;5.80;1.87;;;;;;;;;;5073992;28;20900;-87
2022/01/03 13:44:45;;;;;;;6.83;2.80;;;;;;;;;;5073229;28;20237;-87
2022/01/03 13:50:00;;;;;;;7.90;2.97;;;;;;;;;;5073254;28;20595;-86
2022/01/03 13:52:30;;;;;;;7.40;2.50;;;;;;;;;;5074576;28;20217;-86
2022/01/03 13:55:02;;;;;;;10.07;2.40;;;;;;;;;;5074364;28;20282;-85
2022/01/03 13:57:29;;;;;;;9.17;2.47;;;;;;;;;;5074571;28;20212;-86
2022/01/03 13:59:56;;;;;;;10.03;2.60;;;;;;;;;;5072999;28;20234;-85
2022/01/03 14:02:24;;;;;;;5.27;2.30;;;;;;;;;;5074493;28;20576;-85
2022/01/03 14:04:51;;;;;;;4.23;1.90;;;;;;;;;;5073562;28;20237;-85
2022/01/03 14:07:21;;;;;;;3.20;2.03;;;;;;;;;;5073821;28;20271;-85
2022/01/03 14:09:55;;;;;;;7.13;2.13;;;;;;;;;;5073410;28;20241;-86
2022/01/03 14:12:22;;;;;;;8.30;2.87;;;;;;;;;;5074287;28;20626;-86
2022/01/03 14:14:53;;;;;;;6.97;2.40;;;;;;;;;;5072561;28;20743;-87
2022/01/03 14:17:21;;;;;;;5.60;2.50;;;;;;;;;;5073805;28;20212;-86
2022/01/03 14:19:58;;;;;;;6.07;2.23;;;;;;;;;;5072985;28;20268;-89
2022/01/03 14:22:31;;;;;;;6.93;2.20;;;;;;;;;;5072901;28;20208;-86
2022/01/03 14:25:01;;;;;;;7.33;2.30;;;;;;;;;;5072119;28;20241;-86
2022/01/03 14:27:32;;;;;;;4.40;2.23;;;;;;;;;;5074706;28;20263;-84
2022/01/03 14:30:12;;;;;;;6.37;3.93;;;;;;;;;;5071744;28;20237;-85
2022/01/03 14:32:39;;;;;;;7.80;3.37;;;;;;;;;;5072025;28;20569;-85
2022/01/03 14:35:07;;;;;;;7.80;2.60;;;;;;;;;;5071989;28;20866;-85
2022/01/03 14:37:35;;;;;;;6.00;2.60;;;;;;;;;;5072595;28;20213;-85
2022/01/03 14:40:05;;;;;;;6.23;2.70;;;;;;;;;;5072065;28;20233;-85
2022/01/03 14:42:34;;;;;;;6.10;2.93;;;;;;;;;;5072858;28;20205;-85
2022/01/03 14:45:08;;;;;;;14.57;3.23;;;;;;;;;;5071962;28;20309;-86
2022/01/03 14:47:35;;;;;;;8.03;3.17;;;;;;;;;;5072857;28;20224;-87
2022/01/03 14:50:05;;;;;;;9.50;2.80;;;;;;;;;;5072610;28;20433;-87
2022/01/03 14:52:33;;;;;;;11.70;3.00;;;;;;;;;;5072960;28;20327;-86
2022/01/03 14:55:00;;;;;;;3.60;2.30;;;;;;;;;;5072146;28;20233;-86
2022/01/03 14:57:29;;;;;;;6.77;2.60;;;;;;;;;;5074864;28;20213;-85
2022/01/03 14:59:58;;;;;;;11.23;2.43;;;;;;;;;;5075539;28;20240;-86
2022/01/03 15:02:25;;;;;;;6.63;2.37;;;;;;;;;;5076832;28;20236;-86
2022/01/03 15:04:53;;;;;;;7.60;3.00;;;;;;;;;;5075477;28;20240;-86
2022/01/03 15:07:20;;;;;;;3.20;2.33;;;;;;;;;;5076596;28;20216;-86
2022/01/03 15:09:47;;;;;;;9.93;3.57;;;;;;;;;;5075502;28;20256;-85
2022/01/03 15:12:14;;;;;;;10.50;3.23;;;;;;;;;;5069512;28;20233;-86
2022/01/03 15:14:43;;;;;;;10.60;3.07;;;;;;;;;;5055816;28;20230;-86